createdAt,value
2018-07-21T00:00:43.495Z,96.80
2018-07-21T00:03:13.027Z,96.30
2018-07-21T00:05:42.781Z,97.10
2018-07-21T00:08:12.208Z,98.00
2018-07-21T00:10:41.608Z,98.40
2018-07-21T00:13:11.227Z,98.40
2018-07-21T00:15:40.296Z,98.50
2018-07-21T00:18:09.603Z,98.90
2018-07-21T00:20:39.004Z,99.50
2018-07-21T00:23:08.415Z,99.50
2018-07-21T00:25:37.814Z,98.90
2018-07-21T00:28:07.223Z,99.60
2018-07-21T00:30:36.741Z,99.90
2018-07-21T00:33:06.086Z,99.90
2018-07-21T00:35:35.116Z,99.90
2018-07-21T00:38:04.158Z,99.90
2018-07-21T00:43:01.790Z,99.30
2018-07-21T00:45:30.938Z,99.90
2018-07-21T00:50:28.805Z,99.90
2018-07-21T00:52:57.901Z,97.40
2018-07-21T00:55:27.396Z,96.30
2018-07-21T00:57:56.799Z,97.90
2018-07-21T01:00:26.296Z,94.90
2018-07-21T01:02:55.701Z,97.50
2018-07-21T01:05:25.058Z,99.00
2018-07-21T01:07:54.559Z,99.90
2018-07-21T01:10:23.974Z,99.90
2018-07-21T01:12:53.639Z,99.90
2018-07-21T01:15:23.068Z,99.90
2018-07-21T01:17:52.633Z,99.90
2018-07-21T01:20:22.066Z,99.90
2018-07-21T01:22:51.427Z,99.90
2018-07-21T01:25:20.771Z,99.90
2018-07-21T01:27:50.184Z,99.90
2018-07-21T01:30:19.608Z,99.90
2018-07-21T01:32:49.037Z,99.90
2018-07-21T01:35:18.445Z,99.90
2018-07-21T01:37:48.014Z,99.90
2018-07-21T01:40:17.471Z,99.90
2018-07-21T01:42:47.019Z,99.90
2018-07-21T01:45:16.382Z,99.90
2018-07-21T01:47:45.980Z,99.90
2018-07-21T01:50:15.373Z,99.90
2018-07-21T01:52:44.854Z,99.60
2018-07-21T01:55:14.211Z,99.30
2018-07-21T01:57:43.587Z,99.90
2018-07-21T02:00:12.992Z,99.90
2018-07-21T02:02:42.404Z,99.90
2018-07-21T02:05:11.826Z,99.90
2018-07-21T02:07:41.184Z,99.90
2018-07-21T02:10:10.523Z,99.90
2018-07-21T02:12:39.879Z,99.90
2018-07-21T02:15:09.361Z,98.90
2018-07-21T02:17:38.848Z,98.60
2018-07-21T02:20:08.418Z,99.10
2018-07-21T02:22:37.843Z,99.50
2018-07-21T02:25:07.410Z,99.90
2018-07-21T02:27:36.782Z,99.90
2018-07-21T02:30:06.397Z,99.90
2018-07-21T02:32:35.776Z,99.90
2018-07-21T02:35:05.417Z,99.90
2018-07-21T02:37:34.741Z,99.90
2018-07-21T02:40:04.515Z,99.90
2018-07-21T02:42:33.969Z,99.90
2018-07-21T02:45:03.427Z,99.90
2018-07-21T02:47:32.721Z,99.90
2018-07-21T02:50:02.168Z,99.90
2018-07-21T02:52:31.501Z,99.90
2018-07-21T02:55:00.941Z,99.90
2018-07-21T02:57:30.332Z,99.90
2018-07-21T02:59:59.691Z,99.90
2018-07-21T03:04:57.934Z,99.90
2018-07-21T03:07:27.411Z,98.50
2018-07-21T03:09:56.820Z,99.90
2018-07-21T03:12:26.264Z,99.90
2018-07-21T03:14:55.725Z,99.90
2018-07-21T03:19:54.120Z,98.40
2018-07-21T03:22:23.574Z,97.30
2018-07-21T03:24:52.974Z,98.40
2018-07-21T03:27:22.426Z,97.30
2018-07-21T03:29:51.961Z,96.80
2018-07-21T03:32:21.360Z,99.20
2018-07-21T03:34:50.765Z,97.50
2018-07-21T03:37:20.105Z,99.90
2018-07-21T03:39:49.449Z,99.90
2018-07-21T03:42:19.720Z,99.90
2018-07-21T03:44:49.123Z,99.90
2018-07-21T03:47:18.512Z,99.90
2018-07-21T03:49:48.042Z,99.90
2018-07-21T03:52:17.636Z,99.90
2018-07-21T03:54:47.141Z,99.90
2018-07-21T03:57:16.589Z,99.90
2018-07-21T03:59:46.025Z,99.90
2018-07-21T04:02:15.419Z,99.90
2018-07-21T04:04:44.811Z,99.90
2018-07-21T04:07:14.342Z,99.90
2018-07-21T04:09:44.084Z,99.90
2018-07-21T04:12:13.476Z,99.90
2018-07-21T04:14:43.024Z,99.90
2018-07-21T04:17:18.559Z,99.90
2018-07-21T04:19:48.383Z,99.90
2018-07-21T04:24:46.760Z,99.90
2018-07-21T04:27:16.265Z,99.90
2018-07-21T04:29:45.789Z,99.90
2018-07-21T04:32:15.670Z,99.90
2018-07-21T04:37:13.883Z,99.90
2018-07-21T04:42:12.566Z,99.90
2018-07-21T04:44:41.948Z,99.90
2018-07-21T04:47:11.430Z,99.90
2018-07-21T04:49:40.807Z,99.90
2018-07-21T04:52:10.868Z,99.90
2018-07-21T04:54:40.289Z,99.90
2018-07-21T04:57:09.734Z,99.90
2018-07-21T04:59:39.103Z,99.90
2018-07-21T05:04:37.813Z,99.90
2018-07-21T05:07:07.245Z,99.90
2018-07-21T05:09:36.610Z,99.90
2018-07-21T05:14:34.929Z,99.90
2018-07-21T05:17:04.453Z,99.90
2018-07-21T05:19:33.881Z,99.90
2018-07-21T05:22:03.434Z,99.90
2018-07-21T05:24:32.821Z,99.90
2018-07-21T05:29:31.248Z,99.90
2018-07-21T05:32:00.679Z,99.90
2018-07-21T05:34:30.093Z,99.90
2018-07-21T05:36:59.520Z,99.90
2018-07-21T05:39:28.933Z,99.90
2018-07-21T05:41:58.429Z,99.90
2018-07-21T05:44:27.850Z,99.90
2018-07-21T05:51:55.086Z,99.90
2018-07-21T05:54:24.581Z,99.90
2018-07-21T05:56:53.990Z,99.90
2018-07-21T05:59:23.398Z,99.90
2018-07-21T06:01:52.818Z,99.90
2018-07-21T06:04:22.216Z,99.90
2018-07-21T06:06:51.841Z,99.90
2018-07-21T06:09:21.305Z,99.90
2018-07-21T06:11:51.397Z,99.30
2018-07-21T06:14:21.302Z,98.80
2018-07-21T06:16:50.796Z,98.40
2018-07-21T06:21:50.213Z,98.80
2018-07-21T06:24:19.671Z,96.70
2018-07-21T06:26:49.202Z,96.60
2018-07-21T06:29:18.607Z,94.10
2018-07-21T06:31:48.007Z,91.80
2018-07-21T06:34:17.432Z,92.10
2018-07-21T06:36:46.799Z,92.30
2018-07-21T06:39:16.298Z,93.20
2018-07-21T06:41:45.889Z,93.40
2018-07-21T06:44:15.516Z,94.60
2018-07-21T06:46:45.844Z,94.50
2018-07-21T06:49:15.265Z,92.50
2018-07-21T06:51:44.665Z,93.00
2018-07-21T06:54:14.237Z,92.60
2018-07-21T06:56:43.683Z,93.30
2018-07-21T07:01:42.257Z,91.90
2018-07-21T07:04:11.988Z,89.20
2018-07-21T07:06:41.578Z,90.40
2018-07-21T07:09:12.314Z,82.50
2018-07-21T07:11:41.876Z,82.90
2018-07-21T07:14:11.326Z,77.40
2018-07-21T07:16:41.090Z,81.10
2018-07-21T07:19:11.034Z,89.50
2018-07-21T07:21:40.512Z,93.10
2018-07-21T07:24:09.931Z,92.40
2018-07-21T07:26:39.334Z,95.60
2018-07-21T07:29:08.797Z,94.80
2018-07-21T07:31:39.206Z,94.80
2018-07-21T07:34:08.805Z,95.90
2018-07-21T07:36:38.314Z,97.30
2018-07-21T07:39:09.713Z,96.90
2018-07-21T07:41:39.666Z,96.80
2018-07-21T07:44:09.171Z,97.50
2018-07-21T07:46:38.590Z,99.00
2018-07-21T07:49:08.060Z,99.20
2018-07-21T07:51:37.677Z,98.30
2018-07-21T07:54:07.132Z,98.90
2018-07-21T07:56:36.675Z,98.50
2018-07-21T07:59:06.294Z,99.00
2018-07-21T08:01:37.975Z,99.00
2018-07-21T08:04:07.713Z,98.50
2018-07-21T08:11:37.048Z,98.80
2018-07-21T08:14:06.756Z,98.40
2018-07-21T08:16:37.124Z,98.10
2018-07-21T08:19:08.079Z,98.40
2018-07-21T08:21:37.536Z,98.60
2018-07-21T08:24:07.277Z,99.30
2018-07-21T08:26:36.646Z,99.00
2018-07-21T08:29:06.070Z,99.90
2018-07-21T08:31:36.111Z,99.30
2018-07-21T08:34:05.727Z,99.90
2018-07-21T08:36:35.120Z,99.80
2018-07-21T08:39:07.215Z,99.90
2018-07-21T08:41:36.654Z,99.90
2018-07-21T08:44:06.507Z,99.90
2018-07-21T08:46:37.047Z,99.90
2018-07-21T08:49:06.646Z,99.90
2018-07-21T08:51:36.351Z,99.90
2018-07-21T08:54:06.692Z,99.90
2018-07-21T08:56:36.102Z,99.90
2018-07-21T08:59:05.881Z,99.90
2018-07-21T09:01:35.509Z,99.90
2018-07-21T09:04:04.988Z,99.90
2018-07-21T09:06:34.526Z,99.90
2018-07-21T09:09:07.398Z,99.90
2018-07-21T09:11:37.103Z,99.90
2018-07-21T09:14:06.718Z,99.90
2018-07-21T09:16:36.469Z,99.90
2018-07-21T09:19:06.392Z,99.90
2018-07-21T09:21:35.960Z,99.90
2018-07-21T09:24:05.480Z,99.90
2018-07-21T09:26:35.568Z,99.90
2018-07-21T09:29:04.940Z,99.90
2018-07-21T09:31:35.047Z,99.90
2018-07-21T09:34:04.701Z,99.90
2018-07-21T09:36:34.174Z,99.90
2018-07-21T09:39:04.320Z,99.90
2018-07-21T09:41:33.911Z,99.90
2018-07-21T09:44:03.598Z,99.90
2018-07-21T09:46:33.051Z,99.90
2018-07-21T09:49:02.621Z,99.90
2018-07-21T09:51:32.705Z,99.90
2018-07-21T09:54:02.091Z,99.90
2018-07-21T09:59:00.720Z,99.90
2018-07-21T10:01:30.266Z,99.90
2018-07-21T10:03:59.851Z,99.90
2018-07-21T10:06:29.482Z,99.90
2018-07-21T10:08:59.188Z,99.90
2018-07-21T10:11:28.609Z,99.90
2018-07-21T10:13:58.204Z,99.90
2018-07-21T10:16:27.992Z,99.90
2018-07-21T10:18:57.429Z,99.90
2018-07-21T10:21:26.899Z,99.90
2018-07-21T10:24:00.741Z,99.90
2018-07-21T10:26:35.553Z,99.90
2018-07-21T10:29:08.338Z,99.90
2018-07-21T10:34:07.236Z,99.90
2018-07-21T10:36:36.857Z,99.90
2018-07-21T10:39:08.707Z,99.90
2018-07-21T10:41:38.325Z,99.90
2018-07-21T10:44:07.936Z,99.90
2018-07-21T10:46:38.094Z,99.90
2018-07-21T10:49:08.103Z,99.90
2018-07-21T10:54:07.179Z,99.90
2018-07-21T10:56:36.720Z,99.90
2018-07-21T11:01:35.131Z,99.90
2018-07-21T11:04:04.554Z,99.90
2018-07-21T11:06:34.042Z,99.90
2018-07-21T11:09:06.233Z,99.90
2018-07-21T11:11:35.672Z,99.90
2018-07-21T11:14:05.194Z,99.90
2018-07-21T11:19:03.760Z,99.90
2018-07-21T11:21:33.177Z,99.90
2018-07-21T11:24:02.630Z,99.90
2018-07-21T11:26:32.283Z,99.90
2018-07-21T11:29:01.758Z,99.90
2018-07-21T11:31:31.239Z,99.90
2018-07-21T11:34:00.771Z,99.90
2018-07-21T11:36:30.393Z,99.90
2018-07-21T11:38:59.901Z,99.90
2018-07-21T11:41:30.322Z,99.90
2018-07-21T11:44:00.157Z,99.90
2018-07-21T11:46:29.648Z,99.90
2018-07-21T11:48:59.151Z,99.90
2018-07-21T11:51:28.640Z,99.90
2018-07-21T11:53:58.890Z,99.90
2018-07-21T11:56:28.452Z,99.90
2018-07-21T11:58:58.074Z,99.90
2018-07-21T12:01:27.789Z,99.90
2018-07-21T12:03:57.222Z,99.90
2018-07-21T12:06:26.788Z,99.90
2018-07-21T12:08:56.169Z,99.90
2018-07-21T12:11:25.915Z,99.90
2018-07-21T12:13:55.298Z,99.90
2018-07-21T12:16:24.917Z,99.90
2018-07-21T12:18:54.526Z,99.90
2018-07-21T12:21:24.076Z,99.90
2018-07-21T12:23:53.603Z,99.90
2018-07-21T12:26:23.042Z,99.90
2018-07-21T12:28:52.741Z,99.90
2018-07-21T12:31:22.164Z,99.90
2018-07-21T12:33:51.570Z,99.90
2018-07-21T12:36:21.226Z,99.90
2018-07-21T12:38:51.810Z,99.90
2018-07-21T12:43:51.085Z,99.90
2018-07-21T12:46:21.625Z,99.90
2018-07-21T12:48:51.168Z,99.90
2018-07-21T12:51:20.590Z,99.90
2018-07-21T12:53:50.090Z,99.90
2018-07-21T12:56:20.648Z,99.90
2018-07-21T12:58:50.301Z,99.90
2018-07-21T13:01:20.010Z,99.90
2018-07-21T13:03:50.395Z,99.90
2018-07-21T13:06:19.957Z,99.90
2018-07-21T13:08:49.343Z,99.90
2018-07-21T13:11:19.004Z,99.90
2018-07-21T13:13:48.417Z,99.90
2018-07-21T13:16:18.535Z,99.90
2018-07-21T13:18:48.187Z,99.90
2018-07-21T13:21:17.650Z,99.90
2018-07-21T13:23:47.154Z,99.90
2018-07-21T13:26:16.704Z,99.90
2018-07-21T13:28:53.082Z,99.90
2018-07-21T13:31:22.586Z,99.90
2018-07-21T13:33:52.134Z,99.90
2018-07-21T13:38:50.621Z,99.90
2018-07-21T13:46:18.157Z,99.90
2018-07-21T13:48:47.596Z,99.90
2018-07-21T13:51:17.710Z,99.90
2018-07-21T13:56:18.367Z,99.90
2018-07-21T13:58:48.169Z,99.90
2018-07-21T14:01:17.576Z,99.90
2018-07-21T14:03:47.157Z,99.90
2018-07-21T14:06:16.666Z,99.90
2018-07-21T14:08:46.356Z,99.90
2018-07-21T14:11:15.798Z,99.90
2018-07-21T14:13:45.198Z,99.90
2018-07-21T14:18:43.551Z,99.90
2018-07-21T14:21:13.379Z,99.90
2018-07-21T14:23:42.883Z,99.90
2018-07-21T14:26:12.305Z,99.90
2018-07-21T14:28:41.815Z,99.90
2018-07-21T14:31:11.416Z,99.90
2018-07-21T14:33:40.921Z,99.90
2018-07-21T14:36:11.008Z,99.90
2018-07-21T14:38:40.356Z,99.90
2018-07-21T14:41:09.765Z,99.90
2018-07-21T14:43:39.278Z,99.90
2018-07-21T14:46:08.686Z,99.90
2018-07-21T14:48:38.505Z,99.90
2018-07-21T14:51:08.961Z,99.90
2018-07-21T14:53:38.648Z,99.90
2018-07-21T14:56:08.187Z,99.90
2018-07-21T14:58:38.630Z,99.90
2018-07-21T15:01:08.042Z,99.90
2018-07-21T15:03:37.543Z,99.90
2018-07-21T15:06:06.981Z,99.90
2018-07-21T15:08:36.436Z,99.90
2018-07-21T15:11:06.057Z,99.90
2018-07-21T15:13:35.540Z,99.90
2018-07-21T15:16:04.940Z,99.90
2018-07-21T15:18:34.439Z,99.90
2018-07-21T15:21:03.954Z,99.90
2018-07-21T15:23:33.450Z,99.90
2018-07-21T15:26:02.923Z,99.90
2018-07-21T15:28:32.593Z,99.90
2018-07-21T15:31:03.203Z,99.90
2018-07-21T15:33:32.712Z,99.90
2018-07-21T15:36:02.245Z,99.90
2018-07-21T15:38:31.767Z,99.90
2018-07-21T15:41:01.228Z,99.90
2018-07-21T15:43:30.817Z,99.90
2018-07-21T15:46:00.180Z,99.90
2018-07-21T15:48:30.775Z,99.90
2018-07-21T15:51:00.807Z,99.90
2018-07-21T15:55:59.656Z,99.90
2018-07-21T15:58:29.106Z,99.90
2018-07-21T16:00:58.497Z,99.90
2018-07-21T16:03:28.177Z,99.90
2018-07-21T16:05:57.615Z,99.90
2018-07-21T16:08:26.987Z,99.90
2018-07-21T16:10:56.371Z,99.90
2018-07-21T16:15:56.065Z,99.90
2018-07-21T16:18:25.529Z,99.90
2018-07-21T16:20:55.055Z,99.90
2018-07-21T16:23:24.409Z,99.90
2018-07-21T16:25:53.817Z,99.90
2018-07-21T16:28:23.286Z,99.90
2018-07-21T16:30:52.865Z,99.90
2018-07-21T16:33:22.335Z,99.90
2018-07-21T16:35:51.726Z,99.90
2018-07-21T16:40:50.405Z,99.90
2018-07-21T16:43:20.215Z,99.90
2018-07-21T16:45:49.675Z,99.90
2018-07-21T16:50:48.192Z,99.90
2018-07-21T16:53:17.611Z,99.90
2018-07-21T16:55:47.006Z,99.90
2018-07-21T16:58:16.855Z,99.90
2018-07-21T17:00:46.515Z,99.90
2018-07-21T17:03:16.319Z,99.90
2018-07-21T17:05:45.868Z,99.90
2018-07-21T17:08:15.384Z,99.90
2018-07-21T17:10:45.153Z,99.90
2018-07-21T17:13:14.720Z,99.90
2018-07-21T17:15:44.273Z,99.90
2018-07-21T17:18:13.713Z,99.90
2018-07-21T17:20:43.267Z,99.90
2018-07-21T17:23:12.716Z,99.90
2018-07-21T17:25:42.410Z,99.90
2018-07-21T17:28:11.903Z,99.90
2018-07-21T17:30:41.363Z,99.90
2018-07-21T17:33:10.879Z,99.90
2018-07-21T17:35:41.302Z,99.90
2018-07-21T17:38:10.802Z,99.90
2018-07-21T17:40:40.274Z,99.90
2018-07-21T17:45:38.749Z,99.90
2018-07-21T17:48:08.268Z,99.90
2018-07-21T17:50:37.686Z,99.90
2018-07-21T17:53:07.132Z,99.90
2018-07-21T17:55:36.833Z,99.90
2018-07-21T17:58:06.453Z,99.90
2018-07-21T18:00:36.017Z,99.90
2018-07-21T18:03:05.439Z,99.90
2018-07-21T18:05:35.034Z,99.90
2018-07-21T18:08:04.548Z,99.90
2018-07-21T18:10:33.992Z,99.90
2018-07-21T18:13:03.432Z,99.90
2018-07-21T18:15:32.983Z,99.90
2018-07-21T18:18:02.363Z,99.90
2018-07-21T18:20:31.796Z,99.90
2018-07-21T18:23:01.913Z,99.90
2018-07-21T18:25:32.066Z,99.90
2018-07-21T18:28:02.209Z,99.90
2018-07-21T18:30:32.407Z,99.90
2018-07-21T18:35:30.747Z,99.90
2018-07-21T18:38:00.926Z,99.90
2018-07-21T18:42:59.280Z,99.90
2018-07-21T18:45:28.709Z,99.90
2018-07-21T18:47:58.396Z,99.90
2018-07-21T18:50:27.827Z,99.90
2018-07-21T18:52:57.363Z,99.90
2018-07-21T18:55:26.750Z,99.90
2018-07-21T19:00:25.104Z,99.90
2018-07-21T19:02:54.508Z,99.90
2018-07-21T19:05:23.893Z,99.90
2018-07-21T19:07:53.303Z,99.90
2018-07-21T19:10:22.788Z,99.90
2018-07-21T19:12:52.138Z,99.90
2018-07-21T19:15:26.654Z,99.90
2018-07-21T19:17:56.380Z,99.90
2018-07-21T19:20:31.231Z,99.90
2018-07-21T19:23:00.809Z,99.90
2018-07-21T19:25:35.417Z,99.90
2018-07-21T19:28:05.015Z,99.90
2018-07-21T19:30:34.543Z,99.90
2018-07-21T19:33:03.983Z,99.90
2018-07-21T19:38:02.242Z,99.90
2018-07-21T19:40:31.738Z,99.90
2018-07-21T19:43:01.708Z,99.90
2018-07-21T19:45:31.271Z,99.90
2018-07-21T19:48:00.772Z,99.90
2018-07-21T19:50:30.173Z,99.90
2018-07-21T19:52:59.581Z,99.90
2018-07-21T19:55:29.002Z,99.90
2018-07-21T20:00:27.295Z,99.90
2018-07-21T20:05:25.601Z,99.90
2018-07-21T20:07:54.951Z,99.90
2018-07-21T20:10:24.376Z,99.90
2018-07-21T20:12:53.804Z,99.90
2018-07-21T20:15:23.198Z,99.90
2018-07-21T20:17:52.756Z,99.90
2018-07-21T20:20:22.155Z,99.90
2018-07-21T20:22:52.334Z,99.90
2018-07-21T20:25:22.473Z,99.90
2018-07-21T20:27:52.420Z,99.90
2018-07-21T20:30:22.739Z,99.90
2018-07-21T20:32:52.291Z,99.90
2018-07-21T20:37:50.825Z,99.90
2018-07-21T20:40:20.516Z,99.90
2018-07-21T20:42:49.982Z,99.90
2018-07-21T20:45:19.339Z,99.90
2018-07-21T20:47:48.743Z,99.90
2018-07-21T20:50:18.128Z,99.90
2018-07-21T20:52:50.446Z,99.90
2018-07-21T20:55:19.806Z,99.90
2018-07-21T20:57:50.554Z,99.90
2018-07-21T21:00:19.970Z,99.90
2018-07-21T21:02:50.039Z,99.90
2018-07-21T21:05:19.396Z,99.90
2018-07-21T21:07:48.887Z,99.90
2018-07-21T21:10:18.278Z,99.90
2018-07-21T21:12:47.635Z,99.90
2018-07-21T21:15:17.178Z,99.90
2018-07-21T21:17:46.602Z,99.90
2018-07-21T21:20:16.035Z,99.90
2018-07-21T21:22:45.510Z,99.90
2018-07-21T21:25:15.140Z,99.90
2018-07-21T21:27:44.637Z,99.90
2018-07-21T21:30:14.096Z,99.90
2018-07-21T21:32:43.753Z,99.90
2018-07-21T21:35:14.034Z,99.90
2018-07-21T21:37:43.439Z,99.90
2018-07-21T21:40:12.878Z,99.90
2018-07-21T21:42:42.332Z,99.90
2018-07-21T21:45:12.009Z,99.90
2018-07-21T21:47:41.434Z,99.90
2018-07-21T21:52:39.716Z,99.90
2018-07-21T21:57:38.083Z,99.90
2018-07-21T22:00:10.267Z,99.90
2018-07-21T22:02:40.289Z,99.90
2018-07-21T22:05:10.407Z,99.90
2018-07-21T22:10:09.917Z,99.90
2018-07-21T22:12:39.311Z,99.90
2018-07-21T22:15:26.310Z,99.90
2018-07-21T22:17:55.970Z,99.90
2018-07-21T22:22:54.232Z,99.90
2018-07-21T22:25:23.759Z,99.90
2018-07-21T22:27:53.421Z,99.90
2018-07-21T22:30:22.773Z,99.90
2018-07-21T22:32:52.190Z,99.90
2018-07-21T22:35:21.580Z,99.90
2018-07-21T22:37:51.777Z,99.90
2018-07-21T22:40:21.158Z,99.90
2018-07-21T22:42:50.519Z,99.90
2018-07-21T22:47:49.182Z,99.90
2018-07-21T22:50:18.566Z,99.90
2018-07-21T22:52:47.975Z,99.90
2018-07-21T22:55:17.470Z,99.90
2018-07-21T22:57:47.041Z,99.90
2018-07-21T23:00:17.050Z,99.90
2018-07-21T23:02:46.560Z,99.90
2018-07-21T23:05:16.004Z,99.90
2018-07-21T23:07:45.520Z,99.90
2018-07-21T23:10:15.629Z,99.90
2018-07-21T23:12:45.022Z,99.90
2018-07-21T23:15:14.628Z,99.90
2018-07-21T23:17:43.994Z,99.90
2018-07-21T23:20:13.404Z,99.90
2018-07-21T23:22:43.375Z,99.90
2018-07-21T23:25:12.900Z,99.90
2018-07-21T23:27:42.264Z,99.90
2018-07-21T23:30:11.764Z,99.90
2018-07-21T23:32:41.297Z,99.90
2018-07-21T23:35:10.786Z,99.90
2018-07-21T23:37:40.153Z,99.90
2018-07-21T23:40:09.542Z,99.90
2018-07-21T23:42:39.082Z,99.90
2018-07-21T23:45:08.657Z,99.90
2018-07-21T23:47:38.060Z,99.90
2018-07-21T23:50:07.504Z,99.90
2018-07-21T23:52:37.002Z,99.90
2018-07-21T23:55:08.012Z,99.90
2018-07-21T23:57:38.300Z,99.90
